Overview Statistics Trail Chart Weather Telemetry Raw packets
 

This is the latest recevied weather packets stored in our database for station/object DK4DAX-2. If no packets are shown the sender has not sent any weather packets the latest 10 day(s).

<< 1 2 3 4 5 6 7 >>
Time Temp. Humidity Pressure Rain* Wind** Luminosity Snow
1788544804 17.78° C 90% 1011.7 hPa 0.25 mm - - -
1788543903 17.78° C 89% 1011.3 hPa 0.25 mm - - -
1788543004 17.78° C 88% 1011.5 hPa 0.25 mm - - -
1788542103 18.33° C 87% 1011.3 hPa 0.25 mm - - -
1788541203 18.89° C 84% 1011.5 hPa 0 mm - - -
1788540303 19.44° C 82% 1011.2 hPa 0 mm - - -
1788539403 20.56° C 76% 1011 hPa 0 mm - - -
1788538504 21.67° C 68% 1010.8 hPa 0 mm - - -
1788537604 26.11° C 50% 1010 hPa 0 mm - - -
1788536704 26.67° C 48% 1009.7 hPa 0 mm - - -
1788535804 26.67° C 47% 1009.3 hPa 0 mm - - -
1788534903 26.67° C 46% 1009.5 hPa 0 mm - - -
1788534003 27.22° C 44% 1009.4 hPa 0 mm - - -
1788533103 27.78° C 43% 1009.5 hPa 0 mm - - -
1788532203 27.78° C 43% 1009.5 hPa 0 mm - - -
1788531303 29.44° C 41% 1009.5 hPa 0 mm - - -
1788530403 27.78° C 42% 1009.7 hPa 0 mm - - -
1788529503 27.22° C 44% 1009.6 hPa 0 mm - - -
1788528603 27.22° C 43% 1009.5 hPa 0 mm - - -
1788527703 27.78° C 44% 1009.3 hPa 0 mm - - -
1788526804 27.78° C 43% 1009.6 hPa 0 mm - - -
1788525903 27.22° C 46% 1009.5 hPa 0 mm - - -
1788525003 27.78° C 43% 1009.7 hPa 0 mm - - -
1788524104 28.33° C 45% 1009.8 hPa 0 mm - - -
1788523204 27.22° C 45% 1009.7 hPa 0 mm - - -

* Rain latest hour (hover to see other rain measurements)
** Current wind speed in m/s (hover to see current wind gust speed)